sensor_id;sensor_type;location;lat;lon;timestamp;P1;durP1;ratioP1;P2;durP2;ratioP2
69008;SDS011;56065;52.472;13.380;2022-12-05T00:01:41;103.77;;;26.63;;
69008;SDS011;56065;52.472;13.380;2022-12-05T00:04:09;95.30;;;26.63;;
69008;SDS011;56065;52.472;13.380;2022-12-05T00:06:36;100.22;;;27.67;;
69008;SDS011;56065;52.472;13.380;2022-12-05T00:09:03;87.03;;;26.10;;
69008;SDS011;56065;52.472;13.380;2022-12-05T00:11:31;80.80;;;24.88;;
69008;SDS011;56065;52.472;13.380;2022-12-05T00:13:59;91.95;;;27.13;;
69008;SDS011;56065;52.472;13.380;2022-12-05T00:16:27;87.33;;;25.37;;
69008;SDS011;56065;52.472;13.380;2022-12-05T00:18:54;86.28;;;24.15;;
69008;SDS011;56065;52.472;13.380;2022-12-05T00:21:23;101.30;;;28.30;;
69008;SDS011;56065;52.472;13.380;2022-12-05T00:23:50;105.10;;;26.80;;
69008;SDS011;56065;52.472;13.380;2022-12-05T00:26:17;105.78;;;30.02;;
69008;SDS011;56065;52.472;13.380;2022-12-05T00:28:42;103.00;;;26.57;;
69008;SDS011;56065;52.472;13.380;2022-12-05T00:31:09;100.68;;;27.42;;
69008;SDS011;56065;52.472;13.380;2022-12-05T00:33:37;86.53;;;26.40;;
69008;SDS011;56065;52.472;13.380;2022-12-05T00:36:04;82.38;;;24.58;;
69008;SDS011;56065;52.472;13.380;2022-12-05T00:38:32;100.88;;;26.85;;
69008;SDS011;56065;52.472;13.380;2022-12-05T00:41:01;100.10;;;26.17;;
69008;SDS011;56065;52.472;13.380;2022-12-05T00:43:30;84.38;;;25.83;;
69008;SDS011;56065;52.472;13.380;2022-12-05T00:45:59;92.32;;;27.40;;
69008;SDS011;56065;52.472;13.380;2022-12-05T00:48:26;105.38;;;26.70;;
69008;SDS011;56065;52.472;13.380;2022-12-05T00:50:58;86.93;;;27.27;;
69008;SDS011;56065;52.472;13.380;2022-12-05T00:53:33;94.50;;;28.57;;
69008;SDS011;56065;52.472;13.380;2022-12-05T00:56:02;90.93;;;26.15;;
69008;SDS011;56065;52.472;13.380;2022-12-05T00:58:33;92.93;;;27.70;;
69008;SDS011;56065;52.472;13.380;2022-12-05T01:01:09;90.30;;;25.57;;
69008;SDS011;56065;52.472;13.380;2022-12-05T01:03:37;98.57;;;29.42;;
69008;SDS011;56065;52.472;13.380;2022-12-05T01:06:03;109.72;;;26.50;;
69008;SDS011;56065;52.472;13.380;2022-12-05T01:08:30;89.30;;;27.73;;
69008;SDS011;56065;52.472;13.380;2022-12-05T01:10:56;87.70;;;26.30;;
69008;SDS011;56065;52.472;13.380;2022-12-05T01:13:23;75.67;;;25.83;;
69008;SDS011;56065;52.472;13.380;2022-12-05T01:15:49;82.93;;;25.05;;
69008;SDS011;56065;52.472;13.380;2022-12-05T01:18:15;93.90;;;27.90;;
69008;SDS011;56065;52.472;13.380;2022-12-05T01:20:41;80.35;;;24.35;;
69008;SDS011;56065;52.472;13.380;2022-12-05T01:23:07;106.40;;;27.60;;
69008;SDS011;56065;52.472;13.380;2022-12-05T01:25:32;96.22;;;28.25;;
69008;SDS011;56065;52.472;13.380;2022-12-05T01:27:58;111.30;;;29.50;;
69008;SDS011;56065;52.472;13.380;2022-12-05T01:30:24;111.23;;;29.67;;
69008;SDS011;56065;52.472;13.380;2022-12-05T01:32:49;94.27;;;26.87;;
69008;SDS011;56065;52.472;13.380;2022-12-05T01:35:15;102.40;;;28.13;;
69008;SDS011;56065;52.472;13.380;2022-12-05T01:37:40;107.20;;;27.67;;
69008;SDS011;56065;52.472;13.380;2022-12-05T01:40:06;101.03;;;27.40;;
69008;SDS011;56065;52.472;13.380;2022-12-05T01:42:32;97.90;;;26.17;;
69008;SDS011;56065;52.472;13.380;2022-12-05T01:44:59;87.63;;;25.75;;
69008;SDS011;56065;52.472;13.380;2022-12-05T01:47:27;89.30;;;25.45;;
69008;SDS011;56065;52.472;13.380;2022-12-05T01:49:54;98.15;;;27.25;;
69008;SDS011;56065;52.472;13.380;2022-12-05T01:52:22;103.53;;;28.20;;
69008;SDS011;56065;52.472;13.380;2022-12-05T01:54:51;94.88;;;26.75;;
69008;SDS011;56065;52.472;13.380;2022-12-05T01:57:20;98.97;;;28.27;;
69008;SDS011;56065;52.472;13.380;2022-12-05T01:59:47;109.93;;;29.08;;
69008;SDS011;56065;52.472;13.380;2022-12-05T02:02:15;88.88;;;25.33;;
69008;SDS011;56065;52.472;13.380;2022-12-05T02:04:45;97.50;;;26.57;;
69008;SDS011;56065;52.472;13.380;2022-12-05T02:07:17;99.85;;;25.92;;
69008;SDS011;56065;52.472;13.380;2022-12-05T02:09:43;105.50;;;28.52;;
69008;SDS011;56065;52.472;13.380;2022-12-05T02:12:09;97.95;;;27.40;;
69008;SDS011;56065;52.472;13.380;2022-12-05T02:36:31;129.20;;;30.63;;
69008;SDS011;56065;52.472;13.380;2022-12-05T02:39:27;87.65;;;25.92;;
69008;SDS011;56065;52.472;13.380;2022-12-05T02:42:09;102.60;;;26.20;;
69008;SDS011;56065;52.472;13.380;2022-12-05T02:44:44;91.50;;;26.08;;
69008;SDS011;56065;52.472;13.380;2022-12-05T02:47:14;86.93;;;24.23;;
69008;SDS011;56065;52.472;13.380;2022-12-05T02:49:43;91.75;;;26.38;;
69008;SDS011;56065;52.472;13.380;2022-12-05T02:52:10;118.53;;;26.80;;
69008;SDS011;56065;52.472;13.380;2022-12-05T02:54:38;80.70;;;25.10;;
69008;SDS011;56065;52.472;13.380;2022-12-05T02:57:06;93.03;;;26.88;;
69008;SDS011;56065;52.472;13.380;2022-12-05T02:59:33;99.70;;;26.55;;
69008;SDS011;56065;52.472;13.380;2022-12-05T03:01:59;85.47;;;24.47;;
69008;SDS011;56065;52.472;13.380;2022-12-05T03:04:24;84.70;;;23.77;;
69008;SDS011;56065;52.472;13.380;2022-12-05T03:06:56;70.88;;;21.42;;
69008;SDS011;56065;52.472;13.380;2022-12-05T03:09:29;82.55;;;25.00;;
69008;SDS011;56065;52.472;13.380;2022-12-05T03:12:22;79.28;;;23.13;;
69008;SDS011;56065;52.472;13.380;2022-12-05T03:14:55;75.75;;;24.05;;
69008;SDS011;56065;52.472;13.380;2022-12-05T03:17:31;71.57;;;21.53;;
69008;SDS011;56065;52.472;13.380;2022-12-05T03:20:04;62.47;;;21.52;;
69008;SDS011;56065;52.472;13.380;2022-12-05T03:25:09;67.88;;;22.05;;
69008;SDS011;56065;52.472;13.380;2022-12-05T03:30:09;71.03;;;21.10;;
69008;SDS011;56065;52.472;13.380;2022-12-05T03:36:02;70.00;;;21.58;;
69008;SDS011;56065;52.472;13.380;2022-12-05T03:38:15;75.28;;;22.42;;
69008;SDS011;56065;52.472;13.380;2022-12-05T03:51:48;70.50;;;21.40;;
69008;SDS011;56065;52.472;13.380;2022-12-05T03:57:12;67.30;;;20.20;;
69008;SDS011;56065;52.472;13.380;2022-12-05T03:59:45;67.45;;;21.10;;
69008;SDS011;56065;52.472;13.380;2022-12-05T04:02:18;62.85;;;20.90;;
69008;SDS011;56065;52.472;13.380;2022-12-05T04:04:57;63.47;;;20.42;;
69008;SDS011;56065;52.472;13.380;2022-12-05T04:07:28;69.93;;;21.85;;
69008;SDS011;56065;52.472;13.380;2022-12-05T04:09:57;60.63;;;18.73;;
69008;SDS011;56065;52.472;13.380;2022-12-05T04:12:27;63.58;;;20.58;;
69008;SDS011;56065;52.472;13.380;2022-12-05T04:14:59;60.45;;;20.27;;
69008;SDS011;56065;52.472;13.380;2022-12-05T04:20:13;64.38;;;21.35;;
69008;SDS011;56065;52.472;13.380;2022-12-05T04:23:01;54.00;;;18.60;;
69008;SDS011;56065;52.472;13.380;2022-12-05T04:39:03;63.95;;;20.40;;
69008;SDS011;56065;52.472;13.380;2022-12-05T04:41:35;66.20;;;20.77;;
69008;SDS011;56065;52.472;13.380;2022-12-05T04:44:09;66.10;;;21.85;;
69008;SDS011;56065;52.472;13.380;2022-12-05T04:46:37;68.40;;;19.73;;
69008;SDS011;56065;52.472;13.380;2022-12-05T04:49:06;68.00;;;20.53;;
69008;SDS011;56065;52.472;13.380;2022-12-05T04:51:34;62.40;;;19.70;;
69008;SDS011;56065;52.472;13.380;2022-12-05T04:56:51;65.00;;;18.63;;
69008;SDS011;56065;52.472;13.380;2022-12-05T04:59:23;63.38;;;19.75;;
69008;SDS011;56065;52.472;13.380;2022-12-05T05:01:52;51.50;;;17.37;;
69008;SDS011;56065;52.472;13.380;2022-12-05T05:04:25;60.65;;;18.63;;
69008;SDS011;56065;52.472;13.380;2022-12-05T05:06:55;60.60;;;19.98;;
69008;SDS011;56065;52.472;13.380;2022-12-05T05:09:21;55.77;;;17.93;;
69008;SDS011;56065;52.472;13.380;2022-12-05T05:11:46;56.53;;;18.53;;
69008;SDS011;56065;52.472;13.380;2022-12-05T05:14:12;60.73;;;18.67;;
69008;SDS011;56065;52.472;13.380;2022-12-05T05:16:38;60.60;;;19.50;;
69008;SDS011;56065;52.472;13.380;2022-12-05T05:19:05;55.63;;;17.75;;
69008;SDS011;56065;52.472;13.380;2022-12-05T05:21:35;51.58;;;17.80;;
69008;SDS011;56065;52.472;13.380;2022-12-05T05:24:02;56.63;;;18.88;;
69008;SDS011;56065;52.472;13.380;2022-12-05T05:26:29;52.07;;;18.53;;
69008;SDS011;56065;52.472;13.380;2022-12-05T05:28:56;52.00;;;17.00;;
69008;SDS011;56065;52.472;13.380;2022-12-05T05:31:22;45.47;;;15.80;;
69008;SDS011;56065;52.472;13.380;2022-12-05T05:33:51;50.40;;;16.73;;
69008;SDS011;56065;52.472;13.380;2022-12-05T05:36:18;46.97;;;17.47;;
69008;SDS011;56065;52.472;13.380;2022-12-05T05:38:46;44.22;;;15.70;;
69008;SDS011;56065;52.472;13.380;2022-12-05T05:41:15;52.53;;;18.38;;
69008;SDS011;56065;52.472;13.380;2022-12-05T05:43:44;40.00;;;16.08;;
69008;SDS011;56065;52.472;13.380;2022-12-05T05:46:10;44.17;;;15.75;;
69008;SDS011;56065;52.472;13.380;2022-12-05T05:48:36;43.80;;;15.57;;
69008;SDS011;56065;52.472;13.380;2022-12-05T05:51:02;46.25;;;16.15;;
69008;SDS011;56065;52.472;13.380;2022-12-05T05:53:28;42.30;;;15.60;;
69008;SDS011;56065;52.472;13.380;2022-12-05T05:55:54;40.50;;;14.67;;
69008;SDS011;56065;52.472;13.380;2022-12-05T05:58:19;41.70;;;15.33;;
69008;SDS011;56065;52.472;13.380;2022-12-05T06:00:45;42.17;;;14.83;;
69008;SDS011;56065;52.472;13.380;2022-12-05T06:03:10;45.87;;;14.80;;
69008;SDS011;56065;52.472;13.380;2022-12-05T06:05:35;36.23;;;13.90;;
69008;SDS011;56065;52.472;13.380;2022-12-05T06:08:01;35.72;;;14.15;;
69008;SDS011;56065;52.472;13.380;2022-12-05T06:10:26;40.83;;;13.93;;
69008;SDS011;56065;52.472;13.380;2022-12-05T06:12:54;37.50;;;13.10;;
69008;SDS011;56065;52.472;13.380;2022-12-05T06:15:19;38.38;;;13.77;;
69008;SDS011;56065;52.472;13.380;2022-12-05T06:17:44;33.87;;;13.13;;
69008;SDS011;56065;52.472;13.380;2022-12-05T06:20:10;38.03;;;14.57;;
69008;SDS011;56065;52.472;13.380;2022-12-05T06:22:35;37.17;;;13.63;;
69008;SDS011;56065;52.472;13.380;2022-12-05T06:25:01;37.83;;;13.73;;
69008;SDS011;56065;52.472;13.380;2022-12-05T06:27:28;33.17;;;11.83;;
69008;SDS011;56065;52.472;13.380;2022-12-05T06:29:54;37.53;;;13.13;;
69008;SDS011;56065;52.472;13.380;2022-12-05T06:32:19;37.07;;;13.13;;
69008;SDS011;56065;52.472;13.380;2022-12-05T06:34:44;32.90;;;13.13;;
69008;SDS011;56065;52.472;13.380;2022-12-05T06:37:10;38.57;;;12.97;;
69008;SDS011;56065;52.472;13.380;2022-12-05T06:39:36;33.30;;;12.07;;
69008;SDS011;56065;52.472;13.380;2022-12-05T06:42:02;41.00;;;14.30;;
69008;SDS011;56065;52.472;13.380;2022-12-05T06:44:28;39.75;;;13.75;;
69008;SDS011;56065;52.472;13.380;2022-12-05T06:46:53;35.03;;;12.30;;
69008;SDS011;56065;52.472;13.380;2022-12-05T06:49:19;36.58;;;14.10;;
69008;SDS011;56065;52.472;13.380;2022-12-05T06:51:46;34.30;;;14.13;;
69008;SDS011;56065;52.472;13.380;2022-12-05T06:54:11;33.85;;;13.65;;
69008;SDS011;56065;52.472;13.380;2022-12-05T06:56:37;32.83;;;12.80;;
69008;SDS011;56065;52.472;13.380;2022-12-05T06:59:03;36.13;;;12.88;;
69008;SDS011;56065;52.472;13.380;2022-12-05T07:01:28;32.73;;;11.97;;
69008;SDS011;56065;52.472;13.380;2022-12-05T07:04:04;36.45;;;13.73;;
69008;SDS011;56065;52.472;13.380;2022-12-05T07:06:31;33.35;;;12.30;;
69008;SDS011;56065;52.472;13.380;2022-12-05T07:08:57;35.33;;;12.40;;
69008;SDS011;56065;52.472;13.380;2022-12-05T07:11:22;33.25;;;12.75;;
69008;SDS011;56065;52.472;13.380;2022-12-05T07:13:48;32.43;;;12.07;;
69008;SDS011;56065;52.472;13.380;2022-12-05T07:16:13;30.73;;;11.07;;
69008;SDS011;56065;52.472;13.380;2022-12-05T07:18:39;36.23;;;13.03;;
69008;SDS011;56065;52.472;13.380;2022-12-05T07:21:06;33.53;;;11.88;;
69008;SDS011;56065;52.472;13.380;2022-12-05T07:23:34;32.43;;;12.53;;
69008;SDS011;56065;52.472;13.380;2022-12-05T07:26:03;34.33;;;12.73;;
69008;SDS011;56065;52.472;13.380;2022-12-05T07:28:29;32.88;;;12.27;;
69008;SDS011;56065;52.472;13.380;2022-12-05T07:31:01;33.23;;;13.33;;
69008;SDS011;56065;52.472;13.380;2022-12-05T07:33:32;34.90;;;13.15;;
69008;SDS011;56065;52.472;13.380;2022-12-05T07:35:58;34.33;;;12.93;;
69008;SDS011;56065;52.472;13.380;2022-12-05T07:38:25;34.57;;;12.50;;
69008;SDS011;56065;52.472;13.380;2022-12-05T07:40:51;34.13;;;12.63;;
69008;SDS011;56065;52.472;13.380;2022-12-05T07:43:16;33.57;;;12.50;;
69008;SDS011;56065;52.472;13.380;2022-12-05T07:45:41;32.30;;;12.10;;
69008;SDS011;56065;52.472;13.380;2022-12-05T07:48:07;36.90;;;13.20;;
69008;SDS011;56065;52.472;13.380;2022-12-05T07:50:32;39.93;;;13.73;;
69008;SDS011;56065;52.472;13.380;2022-12-05T07:52:57;34.93;;;12.17;;
69008;SDS011;56065;52.472;13.380;2022-12-05T07:55:23;33.67;;;13.80;;
69008;SDS011;56065;52.472;13.380;2022-12-05T07:57:48;30.65;;;11.57;;
69008;SDS011;56065;52.472;13.380;2022-12-05T08:00:13;33.50;;;11.57;;
69008;SDS011;56065;52.472;13.380;2022-12-05T08:02:39;34.57;;;12.70;;
69008;SDS011;56065;52.472;13.380;2022-12-05T08:05:05;33.87;;;12.60;;
69008;SDS011;56065;52.472;13.380;2022-12-05T08:07:30;32.10;;;12.20;;
69008;SDS011;56065;52.472;13.380;2022-12-05T08:09:55;38.07;;;12.23;;
69008;SDS011;56065;52.472;13.380;2022-12-05T08:12:21;33.60;;;13.50;;
69008;SDS011;56065;52.472;13.380;2022-12-05T08:14:46;34.07;;;11.77;;
69008;SDS011;56065;52.472;13.380;2022-12-05T08:17:11;30.17;;;11.33;;
69008;SDS011;56065;52.472;13.380;2022-12-05T08:19:37;32.23;;;12.07;;
69008;SDS011;56065;52.472;13.380;2022-12-05T08:22:02;38.03;;;12.70;;
69008;SDS011;56065;52.472;13.380;2022-12-05T08:24:28;30.33;;;11.45;;
69008;SDS011;56065;52.472;13.380;2022-12-05T08:26:53;29.27;;;11.33;;
69008;SDS011;56065;52.472;13.380;2022-12-05T08:29:19;33.67;;;12.70;;
69008;SDS011;56065;52.472;13.380;2022-12-05T08:31:47;38.83;;;12.98;;
69008;SDS011;56065;52.472;13.380;2022-12-05T08:34:13;35.72;;;12.63;;
69008;SDS011;56065;52.472;13.380;2022-12-05T08:36:40;29.17;;;11.40;;
69008;SDS011;56065;52.472;13.380;2022-12-05T08:39:06;33.28;;;12.38;;
69008;SDS011;56065;52.472;13.380;2022-12-05T08:41:32;29.80;;;12.25;;
69008;SDS011;56065;52.472;13.380;2022-12-05T08:43:59;26.77;;;10.40;;
69008;SDS011;56065;52.472;13.380;2022-12-05T08:46:29;34.25;;;11.52;;
69008;SDS011;56065;52.472;13.380;2022-12-05T08:48:56;32.80;;;12.13;;
69008;SDS011;56065;52.472;13.380;2022-12-05T08:51:22;31.33;;;11.30;;
69008;SDS011;56065;52.472;13.380;2022-12-05T08:53:47;31.15;;;11.10;;
69008;SDS011;56065;52.472;13.380;2022-12-05T08:56:13;28.23;;;10.70;;
69008;SDS011;56065;52.472;13.380;2022-12-05T08:58:38;27.07;;;10.73;;
69008;SDS011;56065;52.472;13.380;2022-12-05T09:03:29;25.73;;;10.77;;
69008;SDS011;56065;52.472;13.380;2022-12-05T09:06:03;28.40;;;11.90;;
69008;SDS011;56065;52.472;13.380;2022-12-05T09:08:33;26.48;;;10.57;;
69008;SDS011;56065;52.472;13.380;2022-12-05T09:10:59;27.67;;;10.73;;
69008;SDS011;56065;52.472;13.380;2022-12-05T09:13:29;25.63;;;10.60;;
69008;SDS011;56065;52.472;13.380;2022-12-05T09:15:54;28.50;;;11.73;;
69008;SDS011;56065;52.472;13.380;2022-12-05T09:18:19;29.50;;;10.53;;
69008;SDS011;56065;52.472;13.380;2022-12-05T09:20:45;26.03;;;10.83;;
69008;SDS011;56065;52.472;13.380;2022-12-05T09:23:10;25.42;;;10.05;;
69008;SDS011;56065;52.472;13.380;2022-12-05T09:25:35;23.80;;;9.97;;
69008;SDS011;56065;52.472;13.380;2022-12-05T09:28:01;27.30;;;11.17;;
69008;SDS011;56065;52.472;13.380;2022-12-05T09:30:26;23.90;;;9.97;;
69008;SDS011;56065;52.472;13.380;2022-12-05T09:32:51;28.93;;;10.87;;
69008;SDS011;56065;52.472;13.380;2022-12-05T09:35:17;25.57;;;10.17;;
69008;SDS011;56065;52.472;13.380;2022-12-05T09:37:42;26.53;;;12.03;;
69008;SDS011;56065;52.472;13.380;2022-12-05T09:40:13;26.03;;;10.43;;
69008;SDS011;56065;52.472;13.380;2022-12-05T09:46:07;30.08;;;11.85;;
69008;SDS011;56065;52.472;13.380;2022-12-05T09:48:13;28.10;;;11.20;;
69008;SDS011;56065;52.472;13.380;2022-12-05T09:50:42;27.92;;;11.18;;
69008;SDS011;56065;52.472;13.380;2022-12-05T09:55:59;31.27;;;12.32;;
69008;SDS011;56065;52.472;13.380;2022-12-05T10:01:09;30.77;;;12.52;;
69008;SDS011;56065;52.472;13.380;2022-12-05T10:03:42;27.98;;;11.18;;
69008;SDS011;56065;52.472;13.380;2022-12-05T10:06:17;34.73;;;12.20;;
69008;SDS011;56065;52.472;13.380;2022-12-05T10:17:47;33.35;;;12.75;;
69008;SDS011;56065;52.472;13.380;2022-12-05T10:20:23;34.47;;;11.90;;
69008;SDS011;56065;52.472;13.380;2022-12-05T10:23:02;35.38;;;12.70;;
69008;SDS011;56065;52.472;13.380;2022-12-05T10:25:32;35.55;;;13.82;;
69008;SDS011;56065;52.472;13.380;2022-12-05T10:28:02;35.67;;;12.38;;
69008;SDS011;56065;52.472;13.380;2022-12-05T10:30:35;31.63;;;11.52;;
69008;SDS011;56065;52.472;13.380;2022-12-05T10:33:14;34.60;;;12.83;;
69008;SDS011;56065;52.472;13.380;2022-12-05T10:35:45;31.42;;;12.48;;
69008;SDS011;56065;52.472;13.380;2022-12-05T10:38:15;37.30;;;13.53;;
69008;SDS011;56065;52.472;13.380;2022-12-05T10:40:49;34.83;;;12.68;;
69008;SDS011;56065;52.472;13.380;2022-12-05T10:43:21;33.72;;;11.93;;
69008;SDS011;56065;52.472;13.380;2022-12-05T10:45:49;34.63;;;12.07;;
69008;SDS011;56065;52.472;13.380;2022-12-05T10:48:16;33.43;;;12.23;;
69008;SDS011;56065;52.472;13.380;2022-12-05T10:50:44;30.77;;;12.07;;
69008;SDS011;56065;52.472;13.380;2022-12-05T10:53:14;34.55;;;14.20;;
69008;SDS011;56065;52.472;13.380;2022-12-05T10:55:42;36.50;;;13.10;;
69008;SDS011;56065;52.472;13.380;2022-12-05T10:58:14;33.35;;;12.85;;
69008;SDS011;56065;52.472;13.380;2022-12-05T11:01:06;32.03;;;12.13;;
69008;SDS011;56065;52.472;13.380;2022-12-05T11:03:34;33.50;;;12.65;;
69008;SDS011;56065;52.472;13.380;2022-12-05T11:06:13;35.58;;;12.77;;
69008;SDS011;56065;52.472;13.380;2022-12-05T11:08:40;37.17;;;13.53;;
69008;SDS011;56065;52.472;13.380;2022-12-05T11:11:07;29.73;;;11.48;;
69008;SDS011;56065;52.472;13.380;2022-12-05T11:13:52;35.07;;;13.03;;
69008;SDS011;56065;52.472;13.380;2022-12-05T11:16:23;37.85;;;13.80;;
69008;SDS011;56065;52.472;13.380;2022-12-05T11:21:49;36.78;;;14.05;;
69008;SDS011;56065;52.472;13.380;2022-12-05T11:24:31;37.20;;;13.90;;
69008;SDS011;56065;52.472;13.380;2022-12-05T11:29:42;38.28;;;13.95;;
69008;SDS011;56065;52.472;13.380;2022-12-05T11:32:30;36.10;;;13.48;;
69008;SDS011;56065;52.472;13.380;2022-12-05T11:35:03;39.17;;;14.35;;
69008;SDS011;56065;52.472;13.380;2022-12-05T11:37:31;42.35;;;14.15;;
69008;SDS011;56065;52.472;13.380;2022-12-05T11:40:04;43.70;;;15.10;;
69008;SDS011;56065;52.472;13.380;2022-12-05T11:42:41;37.80;;;14.98;;
69008;SDS011;56065;52.472;13.380;2022-12-05T11:45:16;44.08;;;16.27;;
69008;SDS011;56065;52.472;13.380;2022-12-05T11:48:21;35.28;;;13.23;;
69008;SDS011;56065;52.472;13.380;2022-12-05T11:56:57;38.72;;;14.55;;
69008;SDS011;56065;52.472;13.380;2022-12-05T11:59:40;37.65;;;14.77;;
69008;SDS011;56065;52.472;13.380;2022-12-05T12:02:24;37.97;;;14.10;;
69008;SDS011;56065;52.472;13.380;2022-12-05T12:20:55;45.83;;;14.93;;
69008;SDS011;56065;52.472;13.380;2022-12-05T12:23:57;40.88;;;15.07;;
69008;SDS011;56065;52.472;13.380;2022-12-05T12:32:11;45.73;;;15.47;;
69008;SDS011;56065;52.472;13.380;2022-12-05T12:46:12;35.07;;;13.70;;
69008;SDS011;56065;52.472;13.380;2022-12-05T12:48:50;30.75;;;12.63;;
69008;SDS011;56065;52.472;13.380;2022-12-05T12:51:29;36.40;;;15.07;;
69008;SDS011;56065;52.472;13.380;2022-12-05T13:02:43;45.25;;;15.90;;
69008;SDS011;56065;52.472;13.380;2022-12-05T13:08:03;45.95;;;17.42;;
69008;SDS011;56065;52.472;13.380;2022-12-05T13:10:40;43.13;;;16.20;;
69008;SDS011;56065;52.472;13.380;2022-12-05T13:13:10;54.97;;;17.93;;
69008;SDS011;56065;52.472;13.380;2022-12-05T13:15:44;41.35;;;15.27;;
69008;SDS011;56065;52.472;13.380;2022-12-05T13:18:18;52.95;;;17.08;;
69008;SDS011;56065;52.472;13.380;2022-12-05T13:20:47;47.65;;;16.25;;
69008;SDS011;56065;52.472;13.380;2022-12-05T13:23:18;43.83;;;15.55;;
69008;SDS011;56065;52.472;13.380;2022-12-05T13:26:08;42.47;;;14.87;;
69008;SDS011;56065;52.472;13.380;2022-12-05T13:28:36;51.25;;;16.17;;
69008;SDS011;56065;52.472;13.380;2022-12-05T13:31:08;43.63;;;15.40;;
69008;SDS011;56065;52.472;13.380;2022-12-05T13:33:35;52.42;;;16.85;;
69008;SDS011;56065;52.472;13.380;2022-12-05T13:36:09;50.78;;;16.98;;
69008;SDS011;56065;52.472;13.380;2022-12-05T13:38:58;50.50;;;16.73;;
69008;SDS011;56065;52.472;13.380;2022-12-05T13:41:45;47.50;;;17.00;;
69008;SDS011;56065;52.472;13.380;2022-12-05T13:44:42;42.78;;;14.93;;
69008;SDS011;56065;52.472;13.380;2022-12-05T13:52:30;51.00;;;16.83;;
69008;SDS011;56065;52.472;13.380;2022-12-05T13:55:10;58.33;;;18.73;;
69008;SDS011;56065;52.472;13.380;2022-12-05T13:57:44;63.53;;;18.80;;
69008;SDS011;56065;52.472;13.380;2022-12-05T14:07:43;50.63;;;17.40;;
69008;SDS011;56065;52.472;13.380;2022-12-05T14:10:14;49.17;;;17.20;;
69008;SDS011;56065;52.472;13.380;2022-12-05T14:12:56;49.55;;;16.45;;
69008;SDS011;56065;52.472;13.380;2022-12-05T14:15:51;45.10;;;15.50;;
69008;SDS011;56065;52.472;13.380;2022-12-05T14:18:22;61.33;;;19.60;;
69008;SDS011;56065;52.472;13.380;2022-12-05T14:23:49;55.58;;;17.52;;
69008;SDS011;56065;52.472;13.380;2022-12-05T14:29:38;67.50;;;19.13;;
69008;SDS011;56065;52.472;13.380;2022-12-05T14:37:29;57.30;;;18.63;;
69008;SDS011;56065;52.472;13.380;2022-12-05T14:39:58;62.55;;;19.35;;
69008;SDS011;56065;52.472;13.380;2022-12-05T14:44:51;67.53;;;19.70;;
69008;SDS011;56065;52.472;13.380;2022-12-05T14:47:24;67.53;;;20.03;;
69008;SDS011;56065;52.472;13.380;2022-12-05T14:52:25;67.07;;;19.77;;
69008;SDS011;56065;52.472;13.380;2022-12-05T14:54:54;59.03;;;18.92;;
69008;SDS011;56065;52.472;13.380;2022-12-05T14:57:25;74.00;;;21.42;;
69008;SDS011;56065;52.472;13.380;2022-12-05T14:59:55;66.50;;;20.30;;
69008;SDS011;56065;52.472;13.380;2022-12-05T15:02:26;83.13;;;20.17;;
69008;SDS011;56065;52.472;13.380;2022-12-05T15:04:57;85.63;;;21.48;;
69008;SDS011;56065;52.472;13.380;2022-12-05T15:10:06;59.13;;;19.00;;
69008;SDS011;56065;52.472;13.380;2022-12-05T15:18:25;96.20;;;20.88;;
69008;SDS011;56065;52.472;13.380;2022-12-05T15:21:00;75.80;;;19.83;;
69008;SDS011;56065;52.472;13.380;2022-12-05T15:26:21;78.63;;;21.03;;
69008;SDS011;56065;52.472;13.380;2022-12-05T15:31:37;89.15;;;21.30;;
69008;SDS011;56065;52.472;13.380;2022-12-05T15:36:50;78.57;;;21.05;;
69008;SDS011;56065;52.472;13.380;2022-12-05T15:39:21;80.00;;;20.17;;
69008;SDS011;56065;52.472;13.380;2022-12-05T15:41:50;71.47;;;20.92;;
69008;SDS011;56065;52.472;13.380;2022-12-05T15:44:17;65.60;;;19.38;;
69008;SDS011;56065;52.472;13.380;2022-12-05T15:46:44;133.88;;;37.85;;
69008;SDS011;56065;52.472;13.380;2022-12-05T15:49:16;69.20;;;21.77;;
69008;SDS011;56065;52.472;13.380;2022-12-05T15:51:50;60.75;;;19.80;;
69008;SDS011;56065;52.472;13.380;2022-12-05T15:54:21;65.43;;;20.10;;
69008;SDS011;56065;52.472;13.380;2022-12-05T15:56:59;69.95;;;19.52;;
69008;SDS011;56065;52.472;13.380;2022-12-05T15:59:41;54.78;;;17.25;;
69008;SDS011;56065;52.472;13.380;2022-12-05T16:02:16;83.30;;;22.93;;
69008;SDS011;56065;52.472;13.380;2022-12-05T16:04:48;82.63;;;21.88;;
69008;SDS011;56065;52.472;13.380;2022-12-05T16:07:17;63.80;;;19.23;;
69008;SDS011;56065;52.472;13.380;2022-12-05T16:09:45;91.85;;;22.45;;
69008;SDS011;56065;52.472;13.380;2022-12-05T16:12:16;102.78;;;22.08;;
69008;SDS011;56065;52.472;13.380;2022-12-05T16:14:50;95.13;;;20.90;;
69008;SDS011;56065;52.472;13.380;2022-12-05T16:17:19;73.65;;;19.92;;
69008;SDS011;56065;52.472;13.380;2022-12-05T16:19:45;114.93;;;22.90;;
69008;SDS011;56065;52.472;13.380;2022-12-05T16:24:46;80.27;;;19.43;;
69008;SDS011;56065;52.472;13.380;2022-12-05T16:32:37;72.73;;;19.57;;
69008;SDS011;56065;52.472;13.380;2022-12-05T16:35:03;72.35;;;20.58;;
69008;SDS011;56065;52.472;13.380;2022-12-05T16:38:01;55.72;;;18.35;;
69008;SDS011;56065;52.472;13.380;2022-12-05T16:40:28;89.65;;;20.00;;
69008;SDS011;56065;52.472;13.380;2022-12-05T16:43:03;93.93;;;21.13;;
69008;SDS011;56065;52.472;13.380;2022-12-05T16:45:40;88.43;;;21.30;;
69008;SDS011;56065;52.472;13.380;2022-12-05T16:50:52;64.80;;;19.60;;
69008;SDS011;56065;52.472;13.380;2022-12-05T16:56:29;55.73;;;17.87;;
69008;SDS011;56065;52.472;13.380;2022-12-05T16:58:56;64.45;;;18.70;;
69008;SDS011;56065;52.472;13.380;2022-12-05T17:01:22;64.65;;;18.63;;
69008;SDS011;56065;52.472;13.380;2022-12-05T17:03:50;64.88;;;18.98;;
69008;SDS011;56065;52.472;13.380;2022-12-05T17:06:17;67.70;;;20.20;;
69008;SDS011;56065;52.472;13.380;2022-12-05T17:08:45;65.45;;;19.35;;
69008;SDS011;56065;52.472;13.380;2022-12-05T17:11:13;60.83;;;19.30;;
69008;SDS011;56065;52.472;13.380;2022-12-05T17:13:42;60.38;;;19.50;;
69008;SDS011;56065;52.472;13.380;2022-12-05T17:16:09;88.70;;;20.97;;
69008;SDS011;56065;52.472;13.380;2022-12-05T17:18:34;62.03;;;19.60;;
69008;SDS011;56065;52.472;13.380;2022-12-05T17:21:00;55.57;;;17.43;;
69008;SDS011;56065;52.472;13.380;2022-12-05T17:23:26;60.25;;;18.40;;
69008;SDS011;56065;52.472;13.380;2022-12-05T17:25:52;63.53;;;19.07;;
69008;SDS011;56065;52.472;13.380;2022-12-05T17:28:21;79.32;;;20.52;;
69008;SDS011;56065;52.472;13.380;2022-12-05T17:30:47;66.97;;;20.03;;
69008;SDS011;56065;52.472;13.380;2022-12-05T17:33:14;54.50;;;16.88;;
69008;SDS011;56065;52.472;13.380;2022-12-05T17:35:41;82.57;;;19.23;;
69008;SDS011;56065;52.472;13.380;2022-12-05T17:38:06;62.73;;;18.63;;
69008;SDS011;56065;52.472;13.380;2022-12-05T17:40:34;55.30;;;18.05;;
69008;SDS011;56065;52.472;13.380;2022-12-05T17:43:00;52.28;;;17.33;;